sensor_id;sensor_type;location;lat;lon;timestamp;P1;durP1;ratioP1;P2;durP2;ratioP2
46230;SDS011;31949;51.404;-0.038;2023-02-28T00:03:06;4.88;;;2.83;;
46230;SDS011;31949;51.404;-0.038;2023-02-28T00:05:34;4.32;;;3.22;;
46230;SDS011;31949;51.404;-0.038;2023-02-28T00:08:01;9.07;;;3.88;;
46230;SDS011;31949;51.404;-0.038;2023-02-28T00:10:29;4.53;;;2.90;;
46230;SDS011;31949;51.404;-0.038;2023-02-28T00:13:05;5.32;;;3.17;;
46230;SDS011;31949;51.404;-0.038;2023-02-28T00:15:33;5.15;;;3.22;;
46230;SDS011;31949;51.404;-0.038;2023-02-28T00:18:01;4.97;;;3.40;;
46230;SDS011;31949;51.404;-0.038;2023-02-28T00:20:29;11.23;;;4.07;;
46230;SDS011;31949;51.404;-0.038;2023-02-28T00:22:57;5.03;;;2.47;;
46230;SDS011;31949;51.404;-0.038;2023-02-28T00:25:24;4.35;;;2.78;;
46230;SDS011;31949;51.404;-0.038;2023-02-28T00:27:52;4.72;;;2.67;;
46230;SDS011;31949;51.404;-0.038;2023-02-28T00:30:21;6.97;;;2.55;;
46230;SDS011;31949;51.404;-0.038;2023-02-28T00:32:50;8.55;;;3.22;;
46230;SDS011;31949;51.404;-0.038;2023-02-28T00:35:17;5.85;;;2.40;;
46230;SDS011;31949;51.404;-0.038;2023-02-28T00:37:47;6.45;;;2.58;;
46230;SDS011;31949;51.404;-0.038;2023-02-28T00:40:15;4.05;;;2.30;;
46230;SDS011;31949;51.404;-0.038;2023-02-28T00:42:42;8.60;;;2.33;;
46230;SDS011;31949;51.404;-0.038;2023-02-28T00:45:09;5.68;;;2.42;;
46230;SDS011;31949;51.404;-0.038;2023-02-28T00:47:37;4.68;;;2.53;;
46230;SDS011;31949;51.404;-0.038;2023-02-28T00:50:05;9.52;;;2.80;;
46230;SDS011;31949;51.404;-0.038;2023-02-28T00:52:32;4.53;;;2.28;;
46230;SDS011;31949;51.404;-0.038;2023-02-28T00:55:00;7.57;;;2.42;;
46230;SDS011;31949;51.404;-0.038;2023-02-28T00:57:27;6.50;;;2.05;;
46230;SDS011;31949;51.404;-0.038;2023-02-28T00:59:54;6.88;;;1.98;;
46230;SDS011;31949;51.404;-0.038;2023-02-28T01:02:22;6.70;;;3.15;;
46230;SDS011;31949;51.404;-0.038;2023-02-28T01:04:51;4.88;;;2.38;;
46230;SDS011;31949;51.404;-0.038;2023-02-28T01:07:19;7.60;;;2.13;;
46230;SDS011;31949;51.404;-0.038;2023-02-28T01:09:46;2.90;;;1.95;;
46230;SDS011;31949;51.404;-0.038;2023-02-28T01:12:13;12.50;;;3.00;;
46230;SDS011;31949;51.404;-0.038;2023-02-28T01:14:41;4.70;;;2.03;;
46230;SDS011;31949;51.404;-0.038;2023-02-28T01:17:08;4.63;;;2.08;;
46230;SDS011;31949;51.404;-0.038;2023-02-28T01:19:35;4.07;;;1.85;;
46230;SDS011;31949;51.404;-0.038;2023-02-28T01:22:03;6.03;;;1.90;;
46230;SDS011;31949;51.404;-0.038;2023-02-28T01:24:33;6.68;;;1.70;;
46230;SDS011;31949;51.404;-0.038;2023-02-28T01:27:01;3.97;;;1.80;;
46230;SDS011;31949;51.404;-0.038;2023-02-28T01:29:28;3.42;;;1.65;;
46230;SDS011;31949;51.404;-0.038;2023-02-28T01:31:55;3.70;;;1.88;;
46230;SDS011;31949;51.404;-0.038;2023-02-28T01:34:23;2.72;;;1.60;;
46230;SDS011;31949;51.404;-0.038;2023-02-28T01:36:50;3.60;;;1.80;;
46230;SDS011;31949;51.404;-0.038;2023-02-28T01:39:18;6.88;;;1.80;;
46230;SDS011;31949;51.404;-0.038;2023-02-28T01:41:45;9.02;;;1.83;;
46230;SDS011;31949;51.404;-0.038;2023-02-28T01:47:17;3.03;;;1.73;;
46230;SDS011;31949;51.404;-0.038;2023-02-28T01:49:44;4.78;;;1.67;;
46230;SDS011;31949;51.404;-0.038;2023-02-28T01:52:12;5.38;;;1.98;;
46230;SDS011;31949;51.404;-0.038;2023-02-28T01:54:46;4.60;;;1.77;;
46230;SDS011;31949;51.404;-0.038;2023-02-28T01:59:48;1.27;;;1.13;;
46230;SDS011;31949;51.404;-0.038;2023-02-28T02:02:38;3.58;;;1.50;;
46230;SDS011;31949;51.404;-0.038;2023-02-28T02:05:24;2.40;;;1.42;;
46230;SDS011;31949;51.404;-0.038;2023-02-28T02:07:55;2.97;;;1.30;;
46230;SDS011;31949;51.404;-0.038;2023-02-28T02:10:27;2.55;;;1.25;;
46230;SDS011;31949;51.404;-0.038;2023-02-28T02:15:34;5.47;;;1.48;;
46230;SDS011;31949;51.404;-0.038;2023-02-28T02:40:13;5.03;;;1.83;;
46230;SDS011;31949;51.404;-0.038;2023-02-28T02:45:14;4.20;;;1.73;;
46230;SDS011;31949;51.404;-0.038;2023-02-28T02:47:46;7.22;;;1.80;;
46230;SDS011;31949;51.404;-0.038;2023-02-28T02:50:17;4.45;;;2.25;;
46230;SDS011;31949;51.404;-0.038;2023-02-28T02:52:51;4.68;;;2.17;;
46230;SDS011;31949;51.404;-0.038;2023-02-28T02:55:22;3.20;;;2.33;;
46230;SDS011;31949;51.404;-0.038;2023-02-28T02:57:55;3.70;;;2.00;;
46230;SDS011;31949;51.404;-0.038;2023-02-28T03:00:31;6.68;;;2.00;;
46230;SDS011;31949;51.404;-0.038;2023-02-28T03:03:02;3.17;;;1.83;;
46230;SDS011;31949;51.404;-0.038;2023-02-28T03:05:45;5.75;;;1.88;;
46230;SDS011;31949;51.404;-0.038;2023-02-28T03:08:16;4.75;;;1.85;;
46230;SDS011;31949;51.404;-0.038;2023-02-28T03:10:45;4.75;;;1.80;;
46230;SDS011;31949;51.404;-0.038;2023-02-28T03:19:34;6.63;;;2.55;;
46230;SDS011;31949;51.404;-0.038;2023-02-28T03:24:57;3.72;;;2.17;;
46230;SDS011;31949;51.404;-0.038;2023-02-28T03:27:42;7.78;;;2.85;;
46230;SDS011;31949;51.404;-0.038;2023-02-28T03:32:53;6.30;;;2.53;;
46230;SDS011;31949;51.404;-0.038;2023-02-28T03:35:34;5.15;;;2.50;;
46230;SDS011;31949;51.404;-0.038;2023-02-28T03:38:18;5.10;;;2.25;;
46230;SDS011;31949;51.404;-0.038;2023-02-28T03:41:00;6.13;;;2.33;;
46230;SDS011;31949;51.404;-0.038;2023-02-28T03:43:38;4.60;;;1.95;;
46230;SDS011;31949;51.404;-0.038;2023-02-28T03:46:10;4.07;;;2.20;;
46230;SDS011;31949;51.404;-0.038;2023-02-28T03:48:46;5.82;;;2.00;;
46230;SDS011;31949;51.404;-0.038;2023-02-28T03:51:22;5.85;;;1.80;;
46230;SDS011;31949;51.404;-0.038;2023-02-28T03:53:54;5.47;;;2.20;;
46230;SDS011;31949;51.404;-0.038;2023-02-28T03:56:31;3.45;;;1.83;;
46230;SDS011;31949;51.404;-0.038;2023-02-28T03:59:05;3.85;;;1.80;;
46230;SDS011;31949;51.404;-0.038;2023-02-28T04:01:43;6.65;;;2.00;;
46230;SDS011;31949;51.404;-0.038;2023-02-28T04:04:12;2.85;;;2.10;;
46230;SDS011;31949;51.404;-0.038;2023-02-28T04:06:41;6.75;;;3.25;;
46230;SDS011;31949;51.404;-0.038;2023-02-28T04:09:10;7.30;;;2.25;;
46230;SDS011;31949;51.404;-0.038;2023-02-28T04:11:38;4.88;;;2.28;;
46230;SDS011;31949;51.404;-0.038;2023-02-28T04:14:08;3.80;;;2.08;;
46230;SDS011;31949;51.404;-0.038;2023-02-28T04:16:37;6.32;;;2.10;;
46230;SDS011;31949;51.404;-0.038;2023-02-28T04:19:07;6.13;;;2.17;;
46230;SDS011;31949;51.404;-0.038;2023-02-28T04:21:40;8.05;;;1.80;;
46230;SDS011;31949;51.404;-0.038;2023-02-28T04:24:10;4.70;;;2.05;;
46230;SDS011;31949;51.404;-0.038;2023-02-28T04:26:42;8.27;;;2.20;;
46230;SDS011;31949;51.404;-0.038;2023-02-28T04:31:41;4.03;;;1.77;;
46230;SDS011;31949;51.404;-0.038;2023-02-28T04:34:08;4.82;;;2.10;;
46230;SDS011;31949;51.404;-0.038;2023-02-28T04:36:35;3.75;;;1.70;;
46230;SDS011;31949;51.404;-0.038;2023-02-28T04:39:02;4.72;;;2.05;;
46230;SDS011;31949;51.404;-0.038;2023-02-28T04:41:30;4.25;;;2.22;;
46230;SDS011;31949;51.404;-0.038;2023-02-28T04:43:58;6.78;;;2.15;;
46230;SDS011;31949;51.404;-0.038;2023-02-28T04:46:25;7.15;;;2.58;;
46230;SDS011;31949;51.404;-0.038;2023-02-28T04:48:52;4.97;;;2.70;;
46230;SDS011;31949;51.404;-0.038;2023-02-28T04:51:20;2.50;;;1.80;;
46230;SDS011;31949;51.404;-0.038;2023-02-28T04:53:48;1.70;;;1.42;;
46230;SDS011;31949;51.404;-0.038;2023-02-28T04:56:16;8.80;;;2.88;;
46230;SDS011;31949;51.404;-0.038;2023-02-28T04:58:44;7.00;;;2.70;;
46230;SDS011;31949;51.404;-0.038;2023-02-28T05:01:22;12.73;;;3.35;;
46230;SDS011;31949;51.404;-0.038;2023-02-28T05:03:58;5.55;;;2.35;;
46230;SDS011;31949;51.404;-0.038;2023-02-28T05:06:28;3.80;;;2.20;;
46230;SDS011;31949;51.404;-0.038;2023-02-28T05:08:57;5.78;;;2.67;;
46230;SDS011;31949;51.404;-0.038;2023-02-28T05:11:33;5.90;;;2.45;;
46230;SDS011;31949;51.404;-0.038;2023-02-28T05:14:05;4.40;;;3.05;;
46230;SDS011;31949;51.404;-0.038;2023-02-28T05:16:36;6.88;;;2.88;;
46230;SDS011;31949;51.404;-0.038;2023-02-28T05:19:03;5.25;;;2.65;;
46230;SDS011;31949;51.404;-0.038;2023-02-28T05:21:32;9.05;;;2.70;;
46230;SDS011;31949;51.404;-0.038;2023-02-28T05:24:02;7.00;;;3.25;;
46230;SDS011;31949;51.404;-0.038;2023-02-28T05:26:33;8.85;;;3.53;;
46230;SDS011;31949;51.404;-0.038;2023-02-28T05:29:09;11.13;;;4.07;;
46230;SDS011;31949;51.404;-0.038;2023-02-28T05:31:37;9.90;;;4.18;;
46230;SDS011;31949;51.404;-0.038;2023-02-28T05:34:04;7.78;;;2.75;;
46230;SDS011;31949;51.404;-0.038;2023-02-28T05:36:32;5.22;;;3.00;;
46230;SDS011;31949;51.404;-0.038;2023-02-28T05:38:59;5.28;;;2.95;;
46230;SDS011;31949;51.404;-0.038;2023-02-28T05:41:27;7.78;;;3.03;;
46230;SDS011;31949;51.404;-0.038;2023-02-28T05:43:54;5.28;;;3.38;;
46230;SDS011;31949;51.404;-0.038;2023-02-28T05:46:22;7.75;;;3.70;;
46230;SDS011;31949;51.404;-0.038;2023-02-28T05:48:49;6.60;;;3.65;;
46230;SDS011;31949;51.404;-0.038;2023-02-28T05:51:17;9.07;;;3.58;;
46230;SDS011;31949;51.404;-0.038;2023-02-28T05:53:44;7.35;;;4.00;;
46230;SDS011;31949;51.404;-0.038;2023-02-28T05:56:11;7.18;;;4.00;;
46230;SDS011;31949;51.404;-0.038;2023-02-28T05:58:39;6.05;;;3.75;;
46230;SDS011;31949;51.404;-0.038;2023-02-28T06:04:08;7.70;;;4.70;;
46230;SDS011;31949;51.404;-0.038;2023-02-28T06:06:54;14.60;;;5.15;;
46230;SDS011;31949;51.404;-0.038;2023-02-28T06:09:24;9.10;;;5.20;;
46230;SDS011;31949;51.404;-0.038;2023-02-28T06:11:51;12.50;;;5.70;;
46230;SDS011;31949;51.404;-0.038;2023-02-28T06:14:19;6.63;;;5.18;;
46230;SDS011;31949;51.404;-0.038;2023-02-28T06:16:46;8.93;;;4.45;;
46230;SDS011;31949;51.404;-0.038;2023-02-28T06:19:14;11.88;;;5.75;;
46230;SDS011;31949;51.404;-0.038;2023-02-28T06:21:42;12.25;;;6.97;;
46230;SDS011;31949;51.404;-0.038;2023-02-28T06:24:10;9.48;;;5.53;;
46230;SDS011;31949;51.404;-0.038;2023-02-28T06:26:37;11.77;;;6.05;;
46230;SDS011;31949;51.404;-0.038;2023-02-28T06:29:05;7.10;;;4.90;;
46230;SDS011;31949;51.404;-0.038;2023-02-28T06:31:35;8.03;;;5.93;;
46230;SDS011;31949;51.404;-0.038;2023-02-28T06:34:03;9.13;;;5.63;;
46230;SDS011;31949;51.404;-0.038;2023-02-28T06:36:31;7.90;;;5.28;;
46230;SDS011;31949;51.404;-0.038;2023-02-28T06:38:58;10.23;;;6.00;;
46230;SDS011;31949;51.404;-0.038;2023-02-28T06:41:26;10.13;;;5.63;;
46230;SDS011;31949;51.404;-0.038;2023-02-28T06:43:54;10.38;;;6.03;;
46230;SDS011;31949;51.404;-0.038;2023-02-28T06:46:21;10.23;;;6.85;;
46230;SDS011;31949;51.404;-0.038;2023-02-28T06:48:49;13.25;;;6.07;;
46230;SDS011;31949;51.404;-0.038;2023-02-28T06:51:18;8.00;;;6.35;;
46230;SDS011;31949;51.404;-0.038;2023-02-28T06:53:50;10.07;;;5.88;;
46230;SDS011;31949;51.404;-0.038;2023-02-28T06:56:18;8.25;;;5.68;;
46230;SDS011;31949;51.404;-0.038;2023-02-28T06:58:49;10.50;;;6.17;;
46230;SDS011;31949;51.404;-0.038;2023-02-28T07:01:17;10.20;;;5.70;;
46230;SDS011;31949;51.404;-0.038;2023-02-28T07:03:46;12.45;;;6.50;;
46230;SDS011;31949;51.404;-0.038;2023-02-28T07:06:19;9.50;;;6.85;;
46230;SDS011;31949;51.404;-0.038;2023-02-28T07:08:49;8.00;;;6.00;;
46230;SDS011;31949;51.404;-0.038;2023-02-28T07:11:17;8.13;;;4.82;;
46230;SDS011;31949;51.404;-0.038;2023-02-28T07:13:45;9.20;;;5.25;;
46230;SDS011;31949;51.404;-0.038;2023-02-28T07:16:14;9.25;;;5.47;;
46230;SDS011;31949;51.404;-0.038;2023-02-28T07:18:41;9.20;;;5.57;;
46230;SDS011;31949;51.404;-0.038;2023-02-28T07:21:09;7.38;;;4.63;;
46230;SDS011;31949;51.404;-0.038;2023-02-28T07:23:37;5.65;;;4.35;;
46230;SDS011;31949;51.404;-0.038;2023-02-28T07:26:05;5.88;;;4.07;;
46230;SDS011;31949;51.404;-0.038;2023-02-28T07:28:33;6.13;;;4.88;;
46230;SDS011;31949;51.404;-0.038;2023-02-28T07:31:06;10.85;;;5.22;;
46230;SDS011;31949;51.404;-0.038;2023-02-28T07:33:34;8.63;;;5.82;;
46230;SDS011;31949;51.404;-0.038;2023-02-28T07:36:03;8.00;;;5.65;;
46230;SDS011;31949;51.404;-0.038;2023-02-28T07:38:35;10.68;;;6.68;;
46230;SDS011;31949;51.404;-0.038;2023-02-28T07:41:03;8.27;;;5.78;;
46230;SDS011;31949;51.404;-0.038;2023-02-28T07:43:31;9.35;;;7.05;;
46230;SDS011;31949;51.404;-0.038;2023-02-28T07:46:06;11.10;;;6.72;;
46230;SDS011;31949;51.404;-0.038;2023-02-28T07:48:35;12.07;;;6.13;;
46230;SDS011;31949;51.404;-0.038;2023-02-28T07:51:02;11.43;;;7.05;;
46230;SDS011;31949;51.404;-0.038;2023-02-28T07:53:30;10.40;;;7.07;;
46230;SDS011;31949;51.404;-0.038;2023-02-28T07:55:57;11.07;;;6.25;;
46230;SDS011;31949;51.404;-0.038;2023-02-28T07:58:28;10.05;;;5.80;;
46230;SDS011;31949;51.404;-0.038;2023-02-28T08:00:56;12.82;;;5.28;;
46230;SDS011;31949;51.404;-0.038;2023-02-28T08:03:31;9.45;;;5.57;;
46230;SDS011;31949;51.404;-0.038;2023-02-28T08:05:58;9.23;;;5.78;;
46230;SDS011;31949;51.404;-0.038;2023-02-28T08:08:25;11.95;;;6.03;;
46230;SDS011;31949;51.404;-0.038;2023-02-28T08:11:01;7.28;;;4.88;;
46230;SDS011;31949;51.404;-0.038;2023-02-28T08:13:30;9.65;;;5.45;;
46230;SDS011;31949;51.404;-0.038;2023-02-28T08:15:57;8.75;;;5.57;;
46230;SDS011;31949;51.404;-0.038;2023-02-28T08:18:24;10.35;;;5.25;;
46230;SDS011;31949;51.404;-0.038;2023-02-28T08:20:52;10.05;;;6.20;;
46230;SDS011;31949;51.404;-0.038;2023-02-28T08:23:20;8.45;;;5.57;;
46230;SDS011;31949;51.404;-0.038;2023-02-28T08:25:56;7.20;;;5.65;;
46230;SDS011;31949;51.404;-0.038;2023-02-28T08:28:24;8.85;;;6.32;;
46230;SDS011;31949;51.404;-0.038;2023-02-28T08:30:53;10.35;;;5.32;;
46230;SDS011;31949;51.404;-0.038;2023-02-28T08:33:22;8.52;;;5.88;;
46230;SDS011;31949;51.404;-0.038;2023-02-28T08:35:53;8.57;;;5.05;;
46230;SDS011;31949;51.404;-0.038;2023-02-28T08:38:23;9.32;;;4.97;;
46230;SDS011;31949;51.404;-0.038;2023-02-28T08:40:56;6.57;;;4.22;;
46230;SDS011;31949;51.404;-0.038;2023-02-28T08:43:29;6.95;;;4.60;;
46230;SDS011;31949;51.404;-0.038;2023-02-28T08:45:56;6.82;;;3.40;;
46230;SDS011;31949;51.404;-0.038;2023-02-28T08:48:24;4.78;;;3.72;;
46230;SDS011;31949;51.404;-0.038;2023-02-28T08:53:34;9.35;;;3.28;;
46230;SDS011;31949;51.404;-0.038;2023-02-28T08:56:04;4.35;;;3.33;;
46230;SDS011;31949;51.404;-0.038;2023-02-28T08:58:38;6.38;;;4.05;;
46230;SDS011;31949;51.404;-0.038;2023-02-28T09:03:39;4.32;;;3.53;;
46230;SDS011;31949;51.404;-0.038;2023-02-28T09:06:08;3.47;;;2.80;;
46230;SDS011;31949;51.404;-0.038;2023-02-28T09:08:43;6.30;;;3.22;;
46230;SDS011;31949;51.404;-0.038;2023-02-28T09:11:11;4.10;;;2.70;;
46230;SDS011;31949;51.404;-0.038;2023-02-28T09:13:42;7.28;;;2.88;;
46230;SDS011;31949;51.404;-0.038;2023-02-28T09:16:10;4.50;;;2.80;;
46230;SDS011;31949;51.404;-0.038;2023-02-28T09:18:39;4.47;;;2.30;;
46230;SDS011;31949;51.404;-0.038;2023-02-28T09:21:08;3.42;;;2.35;;
46230;SDS011;31949;51.404;-0.038;2023-02-28T09:23:40;3.30;;;2.38;;
46230;SDS011;31949;51.404;-0.038;2023-02-28T09:26:18;2.22;;;2.03;;
46230;SDS011;31949;51.404;-0.038;2023-02-28T09:28:46;3.42;;;2.13;;
46230;SDS011;31949;51.404;-0.038;2023-02-28T09:31:18;3.78;;;2.00;;
46230;SDS011;31949;51.404;-0.038;2023-02-28T09:33:52;6.35;;;1.80;;
46230;SDS011;31949;51.404;-0.038;2023-02-28T09:36:21;1.95;;;1.67;;
46230;SDS011;31949;51.404;-0.038;2023-02-28T09:39:00;3.67;;;2.30;;
46230;SDS011;31949;51.404;-0.038;2023-02-28T09:41:27;4.03;;;2.30;;
46230;SDS011;31949;51.404;-0.038;2023-02-28T09:44:06;4.20;;;2.47;;
46230;SDS011;31949;51.404;-0.038;2023-02-28T09:46:41;4.30;;;2.63;;
46230;SDS011;31949;51.404;-0.038;2023-02-28T09:49:15;2.95;;;2.45;;
46230;SDS011;31949;51.404;-0.038;2023-02-28T09:51:46;6.13;;;3.17;;
46230;SDS011;31949;51.404;-0.038;2023-02-28T09:54:20;5.00;;;2.25;;
46230;SDS011;31949;51.404;-0.038;2023-02-28T09:56:51;4.05;;;2.35;;
46230;SDS011;31949;51.404;-0.038;2023-02-28T10:02:19;3.47;;;2.40;;
46230;SDS011;31949;51.404;-0.038;2023-02-28T10:04:55;4.43;;;2.83;;
46230;SDS011;31949;51.404;-0.038;2023-02-28T10:10:30;6.30;;;2.50;;
46230;SDS011;31949;51.404;-0.038;2023-02-28T10:13:06;5.25;;;2.65;;
46230;SDS011;31949;51.404;-0.038;2023-02-28T10:15:39;4.13;;;3.00;;
46230;SDS011;31949;51.404;-0.038;2023-02-28T10:18:11;4.55;;;2.80;;
46230;SDS011;31949;51.404;-0.038;2023-02-28T10:20:41;4.57;;;2.20;;
46230;SDS011;31949;51.404;-0.038;2023-02-28T10:26:08;2.78;;;1.98;;
46230;SDS011;31949;51.404;-0.038;2023-02-28T10:28:43;3.88;;;2.72;;
46230;SDS011;31949;51.404;-0.038;2023-02-28T10:31:11;5.70;;;2.40;;
46230;SDS011;31949;51.404;-0.038;2023-02-28T10:33:43;5.88;;;2.63;;
46230;SDS011;31949;51.404;-0.038;2023-02-28T10:36:16;5.45;;;2.42;;
46230;SDS011;31949;51.404;-0.038;2023-02-28T10:38:45;3.72;;;2.60;;
46230;SDS011;31949;51.404;-0.038;2023-02-28T10:41:27;4.97;;;2.97;;
46230;SDS011;31949;51.404;-0.038;2023-02-28T10:46:46;7.68;;;3.38;;
46230;SDS011;31949;51.404;-0.038;2023-02-28T10:49:20;5.90;;;2.72;;
46230;SDS011;31949;51.404;-0.038;2023-02-28T10:51:51;2.50;;;2.20;;
46230;SDS011;31949;51.404;-0.038;2023-02-28T10:57:15;4.35;;;2.25;;
46230;SDS011;31949;51.404;-0.038;2023-02-28T11:00:06;4.45;;;2.55;;
46230;SDS011;31949;51.404;-0.038;2023-02-28T11:02:43;8.45;;;3.78;;
46230;SDS011;31949;51.404;-0.038;2023-02-28T11:05:26;4.32;;;3.70;;
46230;SDS011;31949;51.404;-0.038;2023-02-28T11:07:55;3.97;;;2.60;;
46230;SDS011;31949;51.404;-0.038;2023-02-28T11:10:37;5.25;;;2.28;;
46230;SDS011;31949;51.404;-0.038;2023-02-28T11:13:05;5.13;;;2.03;;
46230;SDS011;31949;51.404;-0.038;2023-02-28T11:15:33;2.38;;;1.38;;
46230;SDS011;31949;51.404;-0.038;2023-02-28T11:18:21;2.40;;;1.20;;
46230;SDS011;31949;51.404;-0.038;2023-02-28T11:20:57;1.92;;;1.27;;
46230;SDS011;31949;51.404;-0.038;2023-02-28T11:23:28;2.88;;;1.60;;
46230;SDS011;31949;51.404;-0.038;2023-02-28T11:25:59;5.30;;;3.45;;
46230;SDS011;31949;51.404;-0.038;2023-02-28T11:28:30;5.05;;;3.00;;
46230;SDS011;31949;51.404;-0.038;2023-02-28T11:31:04;5.10;;;3.00;;
46230;SDS011;31949;51.404;-0.038;2023-02-28T11:36:13;4.38;;;2.47;;
46230;SDS011;31949;51.404;-0.038;2023-02-28T11:38:45;5.40;;;3.15;;
46230;SDS011;31949;51.404;-0.038;2023-02-28T11:46:41;4.13;;;1.92;;
46230;SDS011;31949;51.404;-0.038;2023-02-28T11:49:26;3.63;;;1.85;;
46230;SDS011;31949;51.404;-0.038;2023-02-28T11:52:06;3.10;;;2.30;;
46230;SDS011;31949;51.404;-0.038;2023-02-28T11:54:59;3.47;;;1.85;;
46230;SDS011;31949;51.404;-0.038;2023-02-28T12:00:44;2.83;;;2.17;;
46230;SDS011;31949;51.404;-0.038;2023-02-28T12:06:33;3.38;;;2.47;;
46230;SDS011;31949;51.404;-0.038;2023-02-28T12:18:25;6.68;;;3.20;;
46230;SDS011;31949;51.404;-0.038;2023-02-28T12:27:00;7.05;;;4.10;;
46230;SDS011;31949;51.404;-0.038;2023-02-28T12:29:33;5.18;;;3.00;;
46230;SDS011;31949;51.404;-0.038;2023-02-28T12:34:55;4.72;;;2.88;;
46230;SDS011;31949;51.404;-0.038;2023-02-28T12:37:31;7.55;;;2.42;;
46230;SDS011;31949;51.404;-0.038;2023-02-28T12:40:11;4.05;;;2.63;;
46230;SDS011;31949;51.404;-0.038;2023-02-28T12:42:50;2.13;;;1.60;;
46230;SDS011;31949;51.404;-0.038;2023-02-28T12:45:21;5.65;;;2.22;;
46230;SDS011;31949;51.404;-0.038;2023-02-28T12:47:54;2.42;;;1.85;;
46230;SDS011;31949;51.404;-0.038;2023-02-28T12:50:26;2.50;;;1.77;;
46230;SDS011;31949;51.404;-0.038;2023-02-28T12:53:03;3.38;;;2.17;;
46230;SDS011;31949;51.404;-0.038;2023-02-28T12:58:45;2.83;;;2.47;;
46230;SDS011;31949;51.404;-0.038;2023-02-28T13:04:19;4.20;;;2.28;;
46230;SDS011;31949;51.404;-0.038;2023-02-28T13:07:19;2.95;;;2.30;;
46230;SDS011;31949;51.404;-0.038;2023-02-28T13:10:05;3.80;;;1.90;;
46230;SDS011;31949;51.404;-0.038;2023-02-28T13:12:34;3.53;;;2.55;;
46230;SDS011;31949;51.404;-0.038;2023-02-28T13:15:36;2.88;;;1.95;;
46230;SDS011;31949;51.404;-0.038;2023-02-28T13:17:56;3.47;;;2.40;;
46230;SDS011;31949;51.404;-0.038;2023-02-28T13:20:26;2.92;;;2.42;;
46230;SDS011;31949;51.404;-0.038;2023-02-28T13:23:01;4.90;;;3.20;;
46230;SDS011;31949;51.404;-0.038;2023-02-28T13:28:09;2.03;;;1.70;;
46230;SDS011;31949;51.404;-0.038;2023-02-28T13:33:29;5.38;;;2.25;;
46230;SDS011;31949;51.404;-0.038;2023-02-28T13:38:41;2.63;;;1.98;;
46230;SDS011;31949;51.404;-0.038;2023-02-28T13:44:20;3.42;;;1.73;;
46230;SDS011;31949;51.404;-0.038;2023-02-28T13:51:48;1.50;;;1.38;;
46230;SDS011;31949;51.404;-0.038;2023-02-28T13:58:19;7.93;;;1.77;;
46230;SDS011;31949;51.404;-0.038;2023-02-28T14:06:18;2.08;;;1.80;;
46230;SDS011;31949;51.404;-0.038;2023-02-28T14:11:40;2.20;;;1.90;;
46230;SDS011;31949;51.404;-0.038;2023-02-28T14:14:10;7.55;;;2.63;;
46230;SDS011;31949;51.404;-0.038;2023-02-28T14:17:06;3.25;;;1.75;;
46230;SDS011;31949;51.404;-0.038;2023-02-28T14:19:54;1.95;;;1.58;;
46230;SDS011;31949;51.404;-0.038;2023-02-28T14:25:22;2.38;;;1.70;;
46230;SDS011;31949;51.404;-0.038;2023-02-28T14:28:23;2.05;;;1.30;;
46230;SDS011;31949;51.404;-0.038;2023-02-28T14:31:07;3.05;;;1.45;;
46230;SDS011;31949;51.404;-0.038;2023-02-28T14:33:48;1.55;;;1.38;;
46230;SDS011;31949;51.404;-0.038;2023-02-28T14:36:31;2.80;;;1.63;;
46230;SDS011;31949;51.404;-0.038;2023-02-28T14:39:04;2.58;;;1.40;;
46230;SDS011;31949;51.404;-0.038;2023-02-28T14:46:44;1.60;;;1.20;;
46230;SDS011;31949;51.404;-0.038;2023-02-28T14:49:16;3.80;;;1.38;;
46230;SDS011;31949;51.404;-0.038;2023-02-28T14:51:50;2.25;;;1.50;;
46230;SDS011;31949;51.404;-0.038;2023-02-28T14:54:30;4.70;;;1.08;;
46230;SDS011;31949;51.404;-0.038;2023-02-28T14:56:57;2.92;;;0.98;;
46230;SDS011;31949;51.404;-0.038;2023-02-28T14:59:29;1.17;;;1.08;;
46230;SDS011;31949;51.404;-0.038;2023-02-28T15:02:15;4.00;;;1.02;;
46230;SDS011;31949;51.404;-0.038;2023-02-28T15:04:43;2.80;;;0.90;;
46230;SDS011;31949;51.404;-0.038;2023-02-28T15:07:18;3.22;;;1.10;;
46230;SDS011;31949;51.404;-0.038;2023-02-28T15:09:45;2.03;;;1.15;;
46230;SDS011;31949;51.404;-0.038;2023-02-28T15:12:13;3.08;;;1.25;;
46230;SDS011;31949;51.404;-0.038;2023-02-28T15:14:42;1.95;;;1.15;;
46230;SDS011;31949;51.404;-0.038;2023-02-28T15:17:13;4.35;;;1.08;;
46230;SDS011;31949;51.404;-0.038;2023-02-28T15:19:49;1.08;;;0.98;;
46230;SDS011;31949;51.404;-0.038;2023-02-28T15:22:21;1.35;;;1.15;;
46230;SDS011;31949;51.404;-0.038;2023-02-28T15:25:06;3.60;;;1.00;;
46230;SDS011;31949;51.404;-0.038;2023-02-28T15:27:39;2.05;;;1.55;;
46230;SDS011;31949;51.404;-0.038;2023-02-28T15:30:16;3.72;;;1.05;;
46230;SDS011;31949;51.404;-0.038;2023-02-28T15:36:14;4.32;;;1.05;;
46230;SDS011;31949;51.404;-0.038;2023-02-28T15:38:44;4.00;;;1.70;;
46230;SDS011;31949;51.404;-0.038;2023-02-28T15:41:27;2.55;;;1.52;;
46230;SDS011;31949;51.404;-0.038;2023-02-28T15:46:58;3.13;;;1.60;;
46230;SDS011;31949;51.404;-0.038;2023-02-28T15:49:40;1.73;;;1.13;;
46230;SDS011;31949;51.404;-0.038;2023-02-28T15:52:26;1.00;;;0.80;;
46230;SDS011;31949;51.404;-0.038;2023-02-28T15:54:58;2.63;;;0.93;;
46230;SDS011;31949;51.404;-0.038;2023-02-28T15:57:33;1.52;;;0.85;;
46230;SDS011;31949;51.404;-0.038;2023-02-28T16:00:03;1.80;;;0.80;;
46230;SDS011;31949;51.404;-0.038;2023-02-28T16:02:40;2.95;;;0.90;;
46230;SDS011;31949;51.404;-0.038;2023-02-28T16:07:36;1.58;;;0.90;;
46230;SDS011;31949;51.404;-0.038;2023-02-28T16:10:08;1.15;;;1.00;;
46230;SDS011;31949;51.404;-0.038;2023-02-28T16:12:37;1.88;;;1.13;;
46230;SDS011;31949;51.404;-0.038;2023-02-28T16:15:17;1.88;;;1.10;;
46230;SDS011;31949;51.404;-0.038;2023-02-28T16:17:56;1.52;;;1.05;;
46230;SDS011;31949;51.404;-0.038;2023-02-28T16:20:25;3.72;;;2.00;;
46230;SDS011;31949;51.404;-0.038;2023-02-28T16:22:54;4.70;;;4.35;;
46230;SDS011;31949;51.404;-0.038;2023-02-28T16:26:21;2.40;;;1.40;;
46230;SDS011;31949;51.404;-0.038;2023-02-28T16:28:51;2.38;;;1.73;;
46230;SDS011;31949;51.404;-0.038;2023-02-28T16:31:21;1.58;;;1.15;;
46230;SDS011;31949;51.404;-0.038;2023-02-28T16:33:48;4.40;;;1.77;;
46230;SDS011;31949;51.404;-0.038;2023-02-28T16:36:23;6.88;;;5.05;;
46230;SDS011;31949;51.404;-0.038;2023-02-28T16:38:54;2.38;;;1.30;;
46230;SDS011;31949;51.404;-0.038;2023-02-28T16:41:22;2.63;;;1.42;;
46230;SDS011;31949;51.404;-0.038;2023-02-28T16:43:53;4.40;;;2.22;;
46230;SDS011;31949;51.404;-0.038;2023-02-28T16:46:27;4.40;;;2.75;;
46230;SDS011;31949;51.404;-0.038;2023-02-28T16:49:00;2.70;;;1.30;;
46230;SDS011;31949;51.404;-0.038;2023-02-28T16:51:28;0.95;;;0.82;;
46230;SDS011;31949;51.404;-0.038;2023-02-28T16:53:58;1.98;;;1.17;;
46230;SDS011;31949;51.404;-0.038;2023-02-28T16:56:26;2.08;;;1.20;;
46230;SDS011;31949;51.404;-0.038;2023-02-28T16:58:54;1.75;;;0.90;;
46230;SDS011;31949;51.404;-0.038;2023-02-28T17:01:25;1.20;;;0.95;;
46230;SDS011;31949;51.404;-0.038;2023-02-28T17:03:55;2.25;;;1.13;;
46230;SDS011;31949;51.404;-0.038;2023-02-28T17:06:23;1.13;;;1.00;;
46230;SDS011;31949;51.404;-0.038;2023-02-28T17:08:55;2.92;;;1.17;;
46230;SDS011;31949;51.404;-0.038;2023-02-28T17:11:24;2.03;;;1.25;;
46230;SDS011;31949;51.404;-0.038;2023-02-28T17:13:53;3.15;;;1.27;;
46230;SDS011;31949;51.404;-0.038;2023-02-28T17:16:31;2.38;;;1.20;;
46230;SDS011;31949;51.404;-0.038;2023-02-28T17:19:15;1.65;;;1.17;;
46230;SDS011;31949;51.404;-0.038;2023-02-28T17:21:44;1.63;;;1.00;;
46230;SDS011;31949;51.404;-0.038;2023-02-28T17:24:11;1.45;;;1.05;;
46230;SDS011;31949;51.404;-0.038;2023-02-28T17:26:44;1.17;;;1.00;;
46230;SDS011;31949;51.404;-0.038;2023-02-28T17:29:15;3.45;;;2.33;;
46230;SDS011;31949;51.404;-0.038;2023-02-28T17:31:44;5.80;;;2.67;;
46230;SDS011;31949;51.404;-0.038;2023-02-28T17:34:12;4.18;;;2.10;;
46230;SDS011;31949;51.404;-0.038;2023-02-28T17:36:45;3.05;;;1.60;;